Time;durP1;ratioP1;P1;durP2;ratioP2;P2;SDS_P1;SDS_P2;PMS_P1;PMS_P2;Temp;Humidity;BMP_temperature;BMP_pressure;BME280_temperature;BME280_humidity;BME280_pressure;Samples;Min_cycle;Max_cycle;Signal;HPM_P1;HPM_P2
2021/04/12 00:01:55;;;;;;;10.43;4.05;;;-0.40;92.80;;;;;;5090034;28;20048;-83
2021/04/12 00:04:42;;;;;;;8.75;3.58;;;-0.50;92.70;;;;;;5089485;28;20040;-82
2021/04/12 00:07:35;;;;;;;7.72;4.15;;;-0.50;92.80;;;;;;5058955;28;20518;-81
2021/04/12 00:10:04;;;;;;;12.50;3.92;;;-0.50;92.80;;;;;;5088228;28;20036;-81
2021/04/12 00:12:55;;;;;;;6.40;3.95;;;-0.50;92.80;;;;;;5078167;28;20086;-84
2021/04/12 00:15:47;;;;;;;10.75;3.95;;;-0.50;92.90;;;;;;5078521;28;20048;-82
2021/04/12 00:18:32;;;;;;;6.38;3.33;;;-0.50;92.90;;;;;;5076811;28;20077;-82
2021/04/12 00:21:02;;;;;;;9.70;4.07;;;-0.50;93.00;;;;;;5079941;28;20747;-84
2021/04/12 00:23:45;;;;;;;10.15;3.35;;;-0.50;92.90;;;;;;5077095;28;20036;-82
2021/04/12 00:26:29;;;;;;;9.63;4.20;;;-0.50;93.00;;;;;;5078887;28;20028;-81
2021/04/12 00:29:09;;;;;;;9.45;3.33;;;-0.40;93.10;;;;;;5090001;28;20482;-83
2021/04/12 00:31:41;;;;;;;9.23;3.72;;;-0.40;93.20;;;;;;5088372;28;20032;-81
2021/04/12 00:34:14;;;;;;;7.97;3.43;;;-0.40;93.20;;;;;;5092123;28;20028;-82
2021/04/12 00:36:59;;;;;;;7.90;3.22;;;-0.40;93.20;;;;;;5089179;28;20051;-84
2021/04/12 00:39:41;;;;;;;4.80;3.22;;;-0.40;93.10;;;;;;5089247;28;20099;-83
2021/04/12 00:42:19;;;;;;;10.88;3.55;;;-0.40;93.20;;;;;;5081383;28;20064;-84
2021/04/12 00:45:11;;;;;;;8.05;3.00;;;-0.30;93.20;;;;;;5071564;28;20067;-83
2021/04/12 00:47:58;;;;;;;11.30;3.63;;;-0.30;93.30;;;;;;5061942;28;20040;-83
2021/04/12 00:50:52;;;;;;;9.13;3.38;;;-0.30;93.30;;;;;;5077272;28;20036;-82
2021/04/12 00:53:26;;;;;;;12.95;3.55;;;-0.30;93.30;;;;;;5061516;28;20044;-84
2021/04/12 00:55:57;;;;;;;6.15;3.17;;;-0.30;93.20;;;;;;5085064;28;20037;-83
2021/04/12 00:59:12;;;;;;;14.30;3.47;;;-0.40;93.10;;;;;;5089803;28;21412;-82
2021/04/12 01:01:45;;;;;;;8.45;3.15;;;-0.40;93.10;;;;;;5077412;28;20132;-81
2021/04/12 01:04:47;;;;;;;6.10;2.80;;;-0.50;93.10;;;;;;5089486;28;20035;-82
2021/04/12 01:07:41;;;;;;;10.75;3.10;;;-0.50;93.10;;;;;;5089909;28;20028;-82
2021/04/12 01:10:25;;;;;;;5.85;3.35;;;-0.60;93.10;;;;;;5071947;28;20036;-83
2021/04/12 01:13:01;;;;;;;10.32;3.15;;;-0.60;93.10;;;;;;5067530;28;20344;-84
2021/04/12 01:15:53;;;;;;;10.00;3.47;;;-0.70;93.20;;;;;;5073377;28;20042;-82
2021/04/12 01:18:30;;;;;;;17.65;3.92;;;-0.70;93.30;;;;;;5070232;28;20044;-82
2021/04/12 01:21:21;;;;;;;9.55;4.18;;;-0.70;93.30;;;;;;5075196;28;20714;-81
2021/04/12 01:24:20;;;;;;;9.20;3.15;;;-0.70;93.40;;;;;;5074883;28;20111;-81
2021/04/12 01:27:04;;;;;;;11.63;3.78;;;-0.70;93.40;;;;;;5082150;28;20142;-82
2021/04/12 01:29:57;;;;;;;11.00;3.72;;;-0.70;93.40;;;;;;5088756;28;20028;-83
2021/04/12 01:32:48;;;;;;;10.70;3.38;;;-0.60;93.50;;;;;;5086566;28;20040;-81
2021/04/12 01:35:34;;;;;;;12.65;4.10;;;-0.60;93.80;;;;;;5080200;28;20044;-81
2021/04/12 01:38:20;;;;;;;15.85;4.22;;;-0.50;93.60;;;;;;5087187;28;20032;-84
2021/04/12 01:41:17;;;;;;;13.70;4.07;;;-0.50;93.90;;;;;;5091034;28;20032;-81
2021/04/12 01:44:04;;;;;;;5.97;3.45;;;-0.50;93.60;;;;;;5083837;28;20036;-85
2021/04/12 01:46:37;;;;;;;13.25;4.15;;;-0.50;93.60;;;;;;5074132;28;20098;-86
2021/04/12 01:49:18;;;;;;;12.05;4.10;;;-0.50;93.70;;;;;;5071688;28;20035;-86
2021/04/12 01:52:08;;;;;;;11.80;4.78;;;-0.40;93.70;;;;;;5063679;28;20117;-83
2021/04/12 01:55:15;;;;;;;12.75;4.65;;;-0.50;93.60;;;;;;5085253;28;20059;-84
2021/04/12 01:57:50;;;;;;;10.60;4.18;;;-0.50;93.70;;;;;;5078346;28;20055;-82
2021/04/12 02:00:25;;;;;;;9.63;3.70;;;-0.50;93.80;;;;;;5085216;28;20068;-86
2021/04/12 02:02:56;;;;;;;9.85;3.53;;;-0.50;93.60;;;;;;5086989;28;20032;-85
2021/04/12 02:05:42;;;;;;;12.88;4.15;;;-0.50;93.60;;;;;;5083877;28;20032;-86
2021/04/12 02:08:33;;;;;;;14.05;5.30;;;-0.50;93.60;;;;;;5087760;28;20043;-85
2021/04/12 02:11:11;;;;;;;10.00;4.20;;;-0.60;93.60;;;;;;5086436;28;20067;-85
2021/04/12 02:14:13;;;;;;;13.13;4.30;;;-0.60;93.70;;;;;;5075176;28;20067;-83
2021/04/12 02:16:58;;;;;;;8.32;4.18;;;-0.60;93.70;;;;;;5069503;28;20031;-85
2021/04/12 02:19:46;;;;;;;8.13;3.85;;;-0.70;93.70;;;;;;5083599;28;20040;-82
2021/04/12 02:22:33;;;;;;;8.27;3.60;;;-0.70;93.70;;;;;;5082090;28;20128;-85
2021/04/12 02:25:26;;;;;;;10.48;4.20;;;-0.70;93.70;;;;;;5084335;28;20573;-85
2021/04/12 02:28:02;;;;;;;10.02;3.78;;;-0.70;93.70;;;;;;5088015;28;20047;-84
2021/04/12 02:30:44;;;;;;;16.33;4.18;;;-0.70;93.80;;;;;;5084890;28;20043;-82
2021/04/12 02:33:19;;;;;;;10.43;4.15;;;-0.70;93.80;;;;;;5087609;28;20039;-83
2021/04/12 02:36:00;;;;;;;9.95;4.38;;;-0.80;93.80;;;;;;5087407;28;20056;-83
2021/04/12 02:38:36;;;;;;;10.20;3.72;;;-0.70;93.90;;;;;;5089854;28;20036;-82
2021/04/12 02:41:11;;;;;;;14.00;4.38;;;-0.80;93.90;;;;;;5083870;28;20111;-83
2021/04/12 02:43:50;;;;;;;9.85;4.20;;;-0.70;93.90;;;;;;5069028;28;20048;-84
2021/04/12 02:46:31;;;;;;;9.13;4.68;;;-0.80;93.90;;;;;;5070851;28;20036;-82
2021/04/12 02:49:19;;;;;;;13.45;4.47;;;-0.80;93.90;;;;;;5067425;28;20411;-84
2021/04/12 02:52:07;;;;;;;16.35;4.50;;;-0.80;94.00;;;;;;5074187;28;20059;-85
2021/04/12 02:55:04;;;;;;;8.02;4.35;;;-0.70;94.10;;;;;;5070543;28;20486;-86
2021/04/12 02:58:07;;;;;;;12.50;4.60;;;-0.70;94.00;;;;;;5072544;28;20581;-83
2021/04/12 03:00:58;;;;;;;11.02;4.72;;;-0.70;94.10;;;;;;5080553;28;20032;-85
2021/04/12 03:03:45;;;;;;;12.18;5.03;;;-0.80;94.10;;;;;;5082996;28;20389;-84
2021/04/12 03:06:39;;;;;;;16.27;4.50;;;-0.80;94.10;;;;;;5083969;28;20032;-84
2021/04/12 03:09:23;;;;;;;13.02;4.97;;;-0.80;94.10;;;;;;5073867;28;20497;-88
2021/04/12 03:12:01;;;;;;;11.57;4.93;;;-0.80;94.10;;;;;;5075269;28;20039;-88
2021/04/12 03:15:06;;;;;;;15.25;4.68;;;-0.70;94.10;;;;;;5067156;28;20521;-82
2021/04/12 03:18:11;;;;;;;10.77;4.65;;;-0.80;94.10;;;;;;5034051;28;20032;-86
2021/04/12 03:20:43;;;;;;;10.15;3.85;;;-0.80;94.10;;;;;;5013503;28;20797;-87
2021/04/12 03:23:27;;;;;;;14.05;4.47;;;-0.80;94.20;;;;;;5065241;28;20079;-84
2021/04/12 03:26:01;;;;;;;12.18;4.18;;;-0.80;94.20;;;;;;5071159;28;20060;-86
2021/04/12 03:28:51;;;;;;;11.65;4.63;;;-0.80;94.20;;;;;;5068254;28;20127;-83
2021/04/12 03:31:55;;;;;;;9.30;4.70;;;-0.80;94.20;;;;;;5074919;28;20172;-83
2021/04/12 03:34:59;;;;;;;13.15;4.32;;;-0.80;94.30;;;;;;5040323;28;20106;-84
2021/04/12 03:37:47;;;;;;;17.50;4.63;;;-0.80;94.30;;;;;;4994166;28;20034;-86
2021/04/12 03:40:19;;;;;;;11.50;4.70;;;-0.70;94.40;;;;;;5072833;28;20064;-86
2021/04/12 03:43:09;;;;;;;12.00;4.55;;;-0.70;94.40;;;;;;5061120;28;20089;-84
2021/04/12 03:45:52;;;;;;;9.07;4.25;;;-0.70;94.40;;;;;;5070517;28;20036;-81
2021/04/12 03:48:44;;;;;;;8.90;4.40;;;-0.70;94.30;;;;;;5072780;28;20494;-84
2021/04/12 03:51:55;;;;;;;7.68;4.18;;;-0.70;94.30;;;;;;5077553;28;20032;-85
2021/04/12 03:54:31;;;;;;;9.93;4.13;;;-0.70;94.30;;;;;;5080655;28;20063;-86
2021/04/12 03:57:25;;;;;;;10.10;3.77;;;-0.80;94.30;;;;;;5085183;28;20032;-82
2021/04/12 03:59:51;;;;;;;8.73;4.18;;;-0.70;94.30;;;;;;5065569;28;20355;-86
2021/04/12 04:02:48;;;;;;;17.25;4.97;;;-0.80;94.40;;;;;;5084275;28;20032;-82
2021/04/12 04:05:27;;;;;;;12.32;4.40;;;-0.80;94.30;;;;;;5084717;28;20071;-83
2021/04/12 04:08:10;;;;;;;10.90;3.92;;;-0.80;94.30;;;;;;5067277;28;20052;-82
2021/04/12 04:11:03;;;;;;;12.77;4.25;;;-0.80;94.40;;;;;;5073128;28;20414;-82
2021/04/12 04:13:35;;;;;;;11.55;4.22;;;-0.80;94.40;;;;;;5067408;28;20032;-83
2021/04/12 04:16:04;;;;;;;9.10;3.90;;;-0.70;94.30;;;;;;5069483;28;20304;-82
2021/04/12 04:18:59;;;;;;;11.27;3.90;;;-0.80;94.40;;;;;;5072106;28;20032;-86
2021/04/12 04:21:50;;;;;;;10.38;4.40;;;-0.80;94.40;;;;;;5081405;28;20115;-83
2021/04/12 04:25:07;;;;;;;12.55;4.30;;;-0.70;94.40;;;;;;5083344;28;20106;-82
2021/04/12 04:27:46;;;;;;;10.23;3.53;;;-0.70;94.50;;;;;;5075228;28;20459;-87
2021/04/12 04:30:17;;;;;;;13.10;4.82;;;-0.70;94.50;;;;;;5081434;28;20040;-87
2021/04/12 04:33:18;;;;;;;11.75;3.97;;;-0.70;94.40;;;;;;5080659;28;20059;-88
2021/04/12 04:36:04;;;;;;;10.23;3.72;;;-0.70;94.40;;;;;;5042593;28;20464;-84
2021/04/12 04:38:55;;;;;;;12.63;4.45;;;-0.70;94.50;;;;;;5079730;28;20044;-83
2021/04/12 04:41:35;;;;;;;9.35;4.05;;;-0.70;94.40;;;;;;5072851;28;20490;-83
2021/04/12 04:44:34;;;;;;;9.00;3.78;;;-0.70;94.40;;;;;;5082924;28;20375;-82
2021/04/12 04:47:12;;;;;;;12.18;3.78;;;-0.70;94.70;;;;;;5067932;28;20127;-85
2021/04/12 04:49:49;;;;;;;8.32;3.08;;;-0.70;94.60;;;;;;5070896;28;20040;-84
2021/04/12 04:52:43;;;;;;;10.60;3.65;;;-0.70;94.50;;;;;;5067948;28;20047;-85
2021/04/12 04:55:28;;;;;;;7.55;3.42;;;-0.70;94.40;;;;;;5054672;28;20098;-86
2021/04/12 04:58:25;;;;;;;8.15;4.03;;;-0.70;94.40;;;;;;5068533;28;20111;-81
2021/04/12 05:00:58;;;;;;;10.02;3.50;;;-0.80;94.50;;;;;;5069473;28;20068;-81
2021/04/12 05:03:43;;;;;;;;;;;-0.70;94.50;;;;;;5070457;28;20127;-81
2021/04/12 05:06:18;;;;;;;8.50;3.50;;;-0.70;94.50;;;;;;5078015;28;19946;-83
2021/04/12 05:09:21;;;;;;;10.57;3.92;;;-0.70;94.50;;;;;;5085208;28;20400;-86
2021/04/12 05:12:07;;;;;;;12.38;4.18;;;-0.70;94.50;;;;;;5088284;28;20378;-81
2021/04/12 05:14:50;;;;;;;7.63;3.67;;;-0.60;94.60;;;;;;5081262;28;20055;-84
2021/04/12 05:17:40;;;;;;;10.85;4.00;;;-0.60;94.60;;;;;;5065756;28;20038;-85
2021/04/12 05:20:30;;;;;;;9.50;4.43;;;-0.50;94.60;;;;;;5076425;28;20040;-84
2021/04/12 05:23:11;;;;;;;8.18;3.85;;;-0.40;94.70;;;;;;5053537;28;20415;-85
2021/04/12 05:26:03;;;;;;;11.15;4.68;;;-0.30;94.70;;;;;;5069727;28;20043;-84
2021/04/12 05:28:38;;;;;;;11.20;3.85;;;-0.20;94.70;;;;;;5080838;28;20464;-85
2021/04/12 05:31:39;;;;;;;17.02;3.75;;;-0.10;94.70;;;;;;5081518;28;20033;-83
2021/04/12 05:34:38;;;;;;;12.77;3.10;;;-0.10;94.70;;;;;;5084246;28;20522;-82
2021/04/12 05:37:32;;;;;;;13.32;3.88;;;-0.10;94.60;;;;;;5086823;28;20039;-82
2021/04/12 05:40:12;;;;;;;6.68;2.95;;;0.00;94.70;;;;;;5090294;28;20024;-85
2021/04/12 05:42:47;;;;;;;7.05;3.05;;;0.00;94.70;;;;;;5080138;28;20119;-86
2021/04/12 05:45:42;;;;;;;6.50;3.15;;;0.00;94.60;;;;;;5071399;28;20487;-83
2021/04/12 05:48:48;;;;;;;10.15;3.30;;;0.10;94.60;;;;;;5061397;28;20040;-85
2021/04/12 05:51:55;;;;;;;10.90;3.05;;;0.10;94.60;;;;;;5072122;28;20115;-83
2021/04/12 05:55:06;;;;;;;8.43;2.75;;;0.20;94.60;;;;;;5075860;28;20036;-84
2021/04/12 05:57:50;;;;;;;6.25;3.25;;;0.20;94.70;;;;;;5076580;28;20186;-83
2021/04/12 06:00:28;;;;;;;9.80;3.05;;;0.30;94.70;;;;;;5080744;28;20035;-83
2021/04/12 06:03:06;;;;;;;8.93;3.10;;;0.40;94.60;;;;;;5082383;28;20079;-85
2021/04/12 06:05:31;;;;;;;8.45;3.22;;;0.50;94.70;;;;;;5082146;28;20047;-84
2021/04/12 06:08:28;;;;;;;5.10;3.28;;;0.50;95.00;;;;;;5080059;28;20037;-85
2021/04/12 06:11:15;;;;;;;9.27;3.00;;;0.60;94.70;;;;;;5080209;28;20055;-82
2021/04/12 06:14:09;;;;;;;9.77;3.25;;;0.70;94.70;;;;;;5082766;28;20119;-83
2021/04/12 06:17:11;;;;;;;13.27;3.47;;;0.70;94.70;;;;;;5081515;28;20047;-81
2021/04/12 06:19:40;;;;;;;5.10;2.80;;;0.90;94.70;;;;;;5068818;28;20036;-84
2021/04/12 06:22:21;;;;;;;6.07;2.50;;;1.00;94.60;;;;;;5076243;28;20090;-85
2021/04/12 06:24:50;;;;;;;10.20;2.78;;;1.00;94.60;;;;;;5073100;28;20543;-84
2021/04/12 06:27:39;;;;;;;5.43;2.65;;;1.10;94.60;;;;;;5070083;28;20047;-83
2021/04/12 06:30:43;;;;;;;5.25;2.45;;;1.20;94.50;;;;;;5078994;28;20039;-86
2021/04/12 06:33:53;;;;;;;9.70;2.13;;;1.30;94.40;;;;;;5066476;28;20047;-87
2021/04/12 06:36:34;;;;;;;5.78;2.25;;;1.40;94.30;;;;;;5037838;28;20102;-85
2021/04/12 06:39:11;;;;;;;10.23;2.72;;;1.40;94.30;;;;;;5078044;28;20031;-81
2021/04/12 06:42:09;;;;;;;5.10;2.10;;;1.50;94.30;;;;;;5071437;28;20111;-84
2021/04/12 06:45:13;;;;;;;5.15;2.33;;;1.60;94.30;;;;;;5067443;28;20028;-83
2021/04/12 06:47:57;;;;;;;7.07;2.30;;;1.70;94.20;;;;;;5078038;28;20041;-82
2021/04/12 06:51:00;;;;;;;6.13;2.38;;;1.80;94.20;;;;;;5080480;28;20028;-82
2021/04/12 06:53:25;;;;;;;6.90;2.58;;;1.90;94.20;;;;;;5084743;28;20032;-82
2021/04/12 06:55:54;;;;;;;11.75;4.88;;;2.00;94.10;;;;;;5083653;28;20394;-83
2021/04/12 06:58:29;;;;;;;4.38;1.77;;;2.10;94.00;;;;;;5085545;28;20539;-84
2021/04/12 07:01:22;;;;;;;2.60;1.90;;;2.20;93.90;;;;;;5085734;28;20047;-86
2021/04/12 07:04:03;;;;;;;7.13;1.85;;;2.30;93.80;;;;;;5073453;28;20115;-84
2021/04/12 07:06:43;;;;;;;6.32;2.45;;;2.40;93.80;;;;;;5089147;28;20131;-83
2021/04/12 07:09:31;;;;;;;3.72;1.70;;;2.50;93.70;;;;;;5086388;28;20040;-83
2021/04/12 07:12:15;;;;;;;6.90;1.92;;;2.60;93.70;;;;;;5084883;28;20121;-84
2021/04/12 07:14:53;;;;;;;7.47;2.50;;;2.70;93.50;;;;;;5074130;28;20040;-85
2021/04/12 07:17:34;;;;;;;4.07;2.20;;;2.80;93.50;;;;;;5078944;28;20035;-82
2021/04/12 07:20:28;;;;;;;7.85;2.10;;;2.90;93.50;;;;;;5069187;28;20080;-81
2021/04/12 07:23:17;;;;;;;7.78;1.88;;;3.10;93.40;;;;;;5070336;28;20035;-82
2021/04/12 07:26:04;;;;;;;4.90;1.42;;;3.20;93.20;;;;;;5065796;28;20068;-85
2021/04/12 07:28:49;;;;;;;10.27;1.65;;;3.30;93.10;;;;;;5066140;28;20651;-81
2021/04/12 07:31:33;;;;;;;5.38;1.67;;;3.50;92.90;;;;;;5061709;28;20041;-83
2021/04/12 07:34:28;;;;;;;8.38;1.60;;;3.60;92.60;;;;;;5072961;28;20029;-85
2021/04/12 07:37:22;;;;;;;4.43;1.77;;;3.80;92.40;;;;;;5063062;28;20056;-85
2021/04/12 07:40:23;;;;;;;8.60;1.92;;;3.90;92.40;;;;;;5079518;28;20105;-84
2021/04/12 07:43:13;;;;;;;3.30;1.25;;;4.00;92.20;;;;;;5075825;28;20112;-83
2021/04/12 07:46:18;;;;;;;4.28;1.60;;;4.20;92.00;;;;;;5086230;28;20461;-83
2021/04/12 07:48:50;;;;;;;5.68;1.73;;;4.30;91.50;;;;;;5084347;28;20032;-82
2021/04/12 07:51:33;;;;;;;13.95;2.00;;;4.40;91.50;;;;;;5082825;28;20059;-83
2021/04/12 07:54:31;;;;;;;7.40;1.00;;;4.50;91.20;;;;;;5080217;28;20467;-82
2021/04/12 07:57:28;;;;;;;3.00;1.30;;;4.60;90.20;;;;;;5058705;28;20593;-82
2021/04/12 08:00:24;;;;;;;4.05;1.30;;;4.80;90.30;;;;;;5083610;28;20054;-83
2021/04/12 08:03:16;;;;;;;8.25;1.48;;;4.90;89.40;;;;;;5069087;28;20093;-82
2021/04/12 08:06:12;;;;;;;6.22;1.00;;;5.00;89.60;;;;;;5071807;28;20036;-83
2021/04/12 08:08:47;;;;;;;7.35;1.15;;;5.10;89.10;;;;;;5069121;28;20071;-83
2021/04/12 08:11:38;;;;;;;6.30;1.52;;;5.20;88.80;;;;;;5066955;28;20036;-87
2021/04/12 08:14:38;;;;;;;6.70;1.17;;;5.30;87.50;;;;;;5034066;28;20132;-82
2021/04/12 08:17:23;;;;;;;5.07;0.90;;;5.30;85.90;;;;;;5080585;28;20058;-84
2021/04/12 08:20:19;;;;;;;2.67;0.82;;;5.30;85.30;;;;;;5070829;28;20051;-85
2021/04/12 08:23:04;;;;;;;4.45;1.10;;;5.40;87.20;;;;;;5070829;28;20420;-81
2021/04/12 08:25:59;;;;;;;8.23;1.38;;;5.60;86.70;;;;;;5055679;28;20059;-85
2021/04/12 08:28:34;;;;;;;5.85;1.15;;;5.80;82.80;;;;;;5074288;28;20472;-85
2021/04/12 08:31:24;;;;;;;3.85;0.93;;;6.00;85.00;;;;;;5078761;28;20051;-82
2021/04/12 08:34:09;;;;;;;4.03;1.17;;;6.20;84.50;;;;;;5090996;28;20467;-81
2021/04/12 08:36:43;;;;;;;7.38;1.55;;;6.30;84.70;;;;;;5064663;28;20066;-83
2021/04/12 08:39:27;;;;;;;7.22;1.17;;;6.50;82.70;;;;;;5073566;28;20036;-85
2021/04/12 08:42:30;;;;;;;6.57;1.15;;;6.50;82.90;;;;;;5066428;28;20708;-82
2021/04/12 08:45:21;;;;;;;4.13;0.90;;;6.40;82.80;;;;;;5055406;28;20036;-82
2021/04/12 08:48:17;;;;;;;7.53;1.17;;;6.20;83.10;;;;;;5072891;28;20032;-83
2021/04/12 08:51:03;;;;;;;4.85;1.00;;;6.00;82.60;;;;;;5077783;28;20036;-82
2021/04/12 08:53:50;;;;;;;6.70;0.95;;;6.00;82.40;;;;;;5064996;28;20108;-82
2021/04/12 08:56:43;;;;;;;8.27;1.27;;;6.10;83.20;;;;;;5069568;28;20044;-85
2021/04/12 08:59:28;;;;;;;;;;;6.30;82.40;;;;;;5073713;28;20110;-83
2021/04/12 09:02:09;;;;;;;10.65;1.08;;;6.40;81.40;;;;;;5059134;28;19916;-84
2021/04/12 09:04:59;;;;;;;7.03;0.98;;;6.40;83.10;;;;;;5051724;28;20036;-86
2021/04/12 09:07:28;;;;;;;7.72;0.90;;;6.30;82.00;;;;;;5082130;28;20051;-82
2021/04/12 09:10:22;;;;;;;4.13;0.70;;;6.10;81.00;;;;;;5080339;28;20036;-82
2021/04/12 09:13:07;;;;;;;3.78;0.82;;;5.90;79.50;;;;;;5090389;28;20118;-80
2021/04/12 09:15:52;;;;;;;4.10;0.65;;;5.70;79.30;;;;;;5089844;28;20418;-82
2021/04/12 09:18:56;;;;;;;5.45;0.77;;;5.80;79.30;;;;;;5082964;28;20470;-81
2021/04/12 09:21:27;;;;;;;6.38;0.88;;;6.00;77.20;;;;;;5072599;28;20032;-81
2021/04/12 09:24:15;;;;;;;4.97;1.10;;;6.20;78.60;;;;;;5081220;28;20055;-81
2021/04/12 09:27:00;;;;;;;2.95;0.82;;;6.40;74.80;;;;;;5074085;28;20076;-85
2021/04/12 09:30:04;;;;;;;4.75;1.00;;;6.50;72.30;;;;;;5074902;28;20092;-84
2021/04/12 09:33:08;;;;;;;5.15;0.82;;;6.80;72.50;;;;;;5059728;28;20131;-80
2021/04/12 09:35:58;;;;;;;5.97;0.90;;;7.10;72.40;;;;;;5062012;28;20047;-81
2021/04/12 09:38:52;;;;;;;6.80;0.93;;;7.30;70.20;;;;;;5069753;28;20037;-84
2021/04/12 09:41:18;;;;;;;4.35;0.90;;;7.30;71.50;;;;;;5070298;28;20044;-82
2021/04/12 09:44:22;;;;;;;4.07;0.70;;;7.40;70.50;;;;;;5072620;28;20050;-85
2021/04/12 09:47:12;;;;;;;3.78;0.70;;;7.50;69.20;;;;;;5079940;28;20036;-84
2021/04/12 09:49:46;;;;;;;4.07;0.68;;;7.70;69.90;;;;;;5075173;28;20071;-82
2021/04/12 09:52:30;;;;;;;5.80;0.90;;;7.70;69.90;;;;;;5071880;28;20040;-82
2021/04/12 09:55:15;;;;;;;3.42;0.70;;;7.50;70.30;;;;;;5072813;28;20035;-82
2021/04/12 09:58:05;;;;;;;5.18;0.80;;;7.20;71.80;;;;;;5070365;28;20040;-83
2021/04/12 10:01:08;;;;;;;3.05;0.65;;;6.90;72.90;;;;;;5074846;28;20211;-84
2021/04/12 10:03:57;;;;;;;3.92;0.60;;;6.60;72.20;;;;;;5076349;28;20024;-83
2021/04/12 10:06:44;;;;;;;4.13;0.52;;;6.60;73.40;;;;;;5071659;28;20115;-84
2021/04/12 10:09:35;;;;;;;4.68;0.60;;;6.80;75.20;;;;;;5067004;28;20411;-85
2021/04/12 10:12:22;;;;;;;4.03;0.70;;;7.20;74.50;;;;;;5069918;28;20032;-84
2021/04/12 10:14:55;;;;;;;4.68;0.82;;;7.50;73.20;;;;;;5076108;28;20119;-83
2021/04/12 10:17:32;;;;;;;3.17;0.88;;;7.70;71.70;;;;;;5071834;28;20072;-85
2021/04/12 10:20:04;;;;;;;1.80;0.73;;;7.70;70.80;;;;;;5079163;28;20096;-83
2021/04/12 10:23:06;;;;;;;2.90;0.77;;;7.60;70.60;;;;;;5087525;28;20043;-82
2021/04/12 10:25:37;;;;;;;2.58;0.60;;;7.40;71.40;;;;;;5070833;28;20042;-84
2021/04/12 10:28:19;;;;;;;3.33;0.88;;;7.20;71.90;;;;;;5072979;28;20028;-83
2021/04/12 10:31:21;;;;;;;2.13;0.83;;;7.00;71.50;;;;;;5078766;28;20052;-83
2021/04/12 10:34:14;;;;;;;3.28;0.90;;;7.10;71.70;;;;;;5084031;28;20028;-82
2021/04/12 10:36:50;;;;;;;2.20;0.52;;;7.20;70.80;;;;;;5070672;28;20556;-85
2021/04/12 10:39:43;;;;;;;7.10;0.80;;;7.20;70.20;;;;;;5087269;28;20077;-80
2021/04/12 10:42:20;;;;;;;5.50;0.88;;;7.20;69.50;;;;;;5085843;28;20031;-82
2021/04/12 10:45:16;;;;;;;4.72;0.90;;;7.40;71.20;;;;;;5079965;28;20116;-83
2021/04/12 10:47:57;;;;;;;5.40;0.68;;;7.80;71.70;;;;;;5086226;28;20122;-85
2021/04/12 10:50:53;;;;;;;8.07;0.98;;;8.20;69.50;;;;;;5074405;28;20074;-82
2021/04/12 10:53:57;;;;;;;3.83;1.30;;;8.20;68.50;;;;;;5074084;28;20032;-85
2021/04/12 10:56:28;;;;;;;4.60;0.77;;;8.20;67.00;;;;;;5072503;28;20047;-84
2021/04/12 10:59:22;;;;;;;3.58;0.60;;;8.20;65.80;;;;;;5069009;28;20044;-85
2021/04/12 11:02:11;;;;;;;1.52;0.63;;;8.20;66.30;;;;;;5071235;28;20118;-82
2021/04/12 11:04:59;;;;;;;2.45;0.60;;;8.30;64.40;;;;;;5071876;28;20036;-82
2021/04/12 11:07:49;;;;;;;2.08;0.55;;;8.50;62.10;;;;;;5072879;28;20116;-82
2021/04/12 11:10:42;;;;;;;5.18;0.75;;;8.50;63.20;;;;;;5067653;28;20036;-84
2021/04/12 11:13:18;;;;;;;2.53;0.70;;;8.30;63.80;;;;;;5069950;28;20199;-84
2021/04/12 11:16:04;;;;;;;3.40;1.15;;;8.30;65.20;;;;;;5079225;28;20086;-85
2021/04/12 11:18:42;;;;;;;6.18;0.82;;;8.20;65.80;;;;;;5078917;28;20106;-84
2021/04/12 11:21:26;;;;;;;3.35;0.80;;;8.00;68.10;;;;;;5068238;28;20032;-85
2021/04/12 11:24:23;;;;;;;4.25;0.50;;;7.70;68.60;;;;;;5073265;28;20036;-81
2021/04/12 11:27:26;;;;;;;4.43;0.60;;;7.40;70.20;;;;;;5075680;28;20044;-85
2021/04/12 11:30:21;;;;;;;2.58;0.70;;;7.30;71.30;;;;;;5071979;28;20071;-87
2021/04/12 11:33:07;;;;;;;2.33;0.60;;;7.40;71.60;;;;;;5065317;28;20048;-80
2021/04/12 11:35:59;;;;;;;4.80;0.80;;;7.30;71.30;;;;;;5083578;28;20409;-83
2021/04/12 11:38:31;;;;;;;2.53;0.60;;;7.10;71.20;;;;;;5080528;28;20036;-87
2021/04/12 11:41:11;;;;;;;1.35;0.57;;;6.90;72.90;;;;;;5082063;28;20040;-83
2021/04/12 11:43:40;;;;;;;1.35;0.50;;;7.00;73.40;;;;;;5077995;28;20044;-84
2021/04/12 11:46:30;;;;;;;3.00;0.55;;;7.10;73.90;;;;;;5081605;28;20063;-85
2021/04/12 11:49:22;;;;;;;4.05;0.52;;;7.30;73.80;;;;;;5084690;28;20028;-82
2021/04/12 11:51:54;;;;;;;1.23;0.40;;;7.40;71.30;;;;;;5077721;28;20050;-83
2021/04/12 11:54:55;;;;;;;2.05;0.40;;;7.60;71.80;;;;;;5085110;28;20036;-83
2021/04/12 11:57:30;;;;;;;2.70;0.50;;;7.90;70.20;;;;;;5071456;28;20041;-83
2021/04/12 12:00:25;;;;;;;2.65;0.70;;;8.00;68.50;;;;;;5068687;28;20143;-82
2021/04/12 12:02:59;;;;;;;2.17;0.80;;;8.00;68.20;;;;;;5068110;28;20051;-83
2021/04/12 12:05:37;;;;;;;2.53;0.47;;;8.00;67.90;;;;;;5071772;28;20471;-84
2021/04/12 12:08:18;;;;;;;3.63;0.80;;;8.00;68.70;;;;;;5069425;28;20054;-84
2021/04/12 12:10:55;;;;;;;3.08;0.50;;;8.20;67.80;;;;;;5079162;28;20034;-86
2021/04/12 12:13:40;;;;;;;3.40;0.55;;;8.40;69.60;;;;;;5072168;28;20487;-84
2021/04/12 12:16:27;;;;;;;2.47;0.68;;;8.70;68.50;;;;;;5087838;28;20032;-84
2021/04/12 12:19:22;;;;;;;1.42;0.55;;;8.90;69.00;;;;;;5089834;28;20447;-85
2021/04/12 12:22:08;;;;;;;0.65;0.43;;;8.60;70.20;;;;;;5070506;28;20024;-84
2021/04/12 12:25:03;;;;;;;4.63;0.68;;;8.00;72.20;;;;;;5066218;28;20040;-85
2021/04/12 12:27:38;;;;;;;2.60;0.60;;;7.80;75.20;;;;;;5074145;28;20394;-86
2021/04/12 12:30:25;;;;;;;1.55;0.63;;;7.90;77.10;;;;;;5074447;28;20096;-85
2021/04/12 12:33:02;;;;;;;1.58;0.50;;;8.30;78.80;;;;;;5070528;28;20040;-84
2021/04/12 12:35:43;;;;;;;2.80;0.50;;;8.90;79.00;;;;;;5074132;28;20040;-83
2021/04/12 12:38:30;;;;;;;0.57;0.30;;;9.60;76.30;;;;;;5072429;28;20402;-84
2021/04/12 12:41:00;;;;;;;1.05;0.32;;;10.00;73.70;;;;;;5073871;28;20079;-84
2021/04/12 12:43:35;;;;;;;1.50;0.40;;;10.00;74.90;;;;;;5082182;28;20031;-85
2021/04/12 12:46:27;;;;;;;4.88;0.63;;;9.80;71.50;;;;;;5088184;28;20070;-83
2021/04/12 12:49:00;;;;;;;0.95;0.52;;;9.60;68.20;;;;;;5087762;28;20126;-83
2021/04/12 12:51:38;;;;;;;2.97;0.75;;;9.50;67.60;;;;;;5091131;28;20040;-83
2021/04/12 12:54:11;;;;;;;3.13;0.60;;;9.50;67.20;;;;;;5083004;28;20044;-84
2021/04/12 12:56:39;;;;;;;;;;;9.40;65.60;;;;;;5069888;28;20044;-82
2021/04/12 12:59:26;;;;;;;2.90;0.55;;;9.10;65.10;;;;;;5084114;28;19923;-83
2021/04/12 13:01:58;;;;;;;1.27;0.35;;;8.70;66.50;;;;;;5070536;28;20040;-79
2021/04/12 13:04:27;;;;;;;0.88;0.30;;;8.20;67.20;;;;;;5073169;28;20043;-84
2021/04/12 13:07:13;;;;;;;2.38;0.80;;;7.80;67.20;;;;;;5069044;28;20037;-82
2021/04/12 13:09:56;;;;;;;1.33;0.60;;;7.50;67.20;;;;;;5053859;28;20113;-83
2021/04/12 13:12:33;;;;;;;3.17;0.50;;;7.40;68.20;;;;;;5055909;28;20060;-83
2021/04/12 13:15:14;;;;;;;4.18;0.50;;;7.70;68.10;;;;;;5074142;28;20037;-81
2021/04/12 13:17:41;;;;;;;1.25;0.43;;;8.10;66.50;;;;;;5075330;28;20319;-84
2021/04/12 13:20:19;;;;;;;2.40;0.57;;;8.60;67.10;;;;;;5037176;28;20048;-83
2021/04/12 13:22:59;;;;;;;2.90;0.60;;;9.50;66.50;;;;;;5071120;28;20043;-82
2021/04/12 13:25:39;;;;;;;2.38;0.50;;;10.30;66.20;;;;;;5069559;28;20366;-84
2021/04/12 13:28:13;;;;;;;2.30;0.43;;;10.80;63.20;;;;;;5074010;28;20042;-84
2021/04/12 13:30:46;;;;;;;1.15;0.55;;;11.10;62.80;;;;;;5066511;28;20064;-81
2021/04/12 13:33:24;;;;;;;3.53;0.47;;;11.70;61.70;;;;;;5071041;28;20040;-80
2021/04/12 13:35:57;;;;;;;3.55;0.85;;;12.00;60.90;;;;;;5067785;28;20040;-83
2021/04/12 13:38:27;;;;;;;;;;;11.60;60.20;;;;;;5089834;27;20024;-81
2021/04/12 13:41:20;;;;;;;2.42;0.70;;;11.00;55.90;;;;;;5092066;27;19920;-84
2021/04/12 13:43:48;;;;;;;3.13;0.60;;;10.40;60.50;;;;;;5072164;28;20028;-82
2021/04/12 13:46:22;;;;;;;2.45;0.45;;;10.00;63.50;;;;;;5051299;28;20414;-81
2021/04/12 13:49:15;;;;;;;5.25;0.63;;;10.00;64.60;;;;;;5069203;28;20119;-81
2021/04/12 13:52:04;;;;;;;3.85;0.60;;;9.80;61.80;;;;;;5066960;28;20043;-82
2021/04/12 13:54:58;;;;;;;2.03;0.60;;;9.50;63.20;;;;;;5061942;28;20394;-82
2021/04/12 13:57:35;;;;;;;5.22;0.60;;;9.10;63.70;;;;;;5078565;28;20040;-83
2021/04/12 14:00:17;;;;;;;3.38;1.00;;;8.80;65.00;;;;;;5083702;28;20082;-80
2021/04/12 14:03:08;;;;;;;3.78;0.73;;;8.70;65.60;;;;;;5090374;28;20038;-83
2021/04/12 14:05:38;;;;;;;3.45;0.57;;;8.50;65.90;;;;;;5074274;28;20040;-82
2021/04/12 14:08:20;;;;;;;2.95;1.42;;;8.30;66.10;;;;;;5090067;28;20059;-81
2021/04/12 14:11:02;;;;;;;2.45;0.68;;;8.10;66.60;;;;;;5085785;28;20165;-83
2021/04/12 14:13:43;;;;;;;3.22;0.57;;;8.00;67.20;;;;;;5087599;28;20047;-82
2021/04/12 14:16:26;;;;;;;3.15;0.60;;;8.00;67.90;;;;;;5089336;28;20054;-80
2021/04/12 14:19:08;;;;;;;;;;;7.90;67.70;;;;;;5086671;28;20047;-81
2021/04/12 14:21:37;;;;;;;3.55;0.60;;;7.90;66.50;;;;;;5073241;28;19981;-83
2021/04/12 14:24:19;;;;;;;4.47;0.50;;;8.70;68.30;;;;;;5060874;28;20047;-82
2021/04/12 14:26:53;;;;;;;2.20;0.57;;;9.90;67.00;;;;;;5074178;28;20032;-82